CCA147 ZUCK-ZJSY
Flight info
| Callsign | CCA147 |
|---|---|
| Flight time | N/A |
| Altitude | 411 |
| Route | VILUS W180 ELBAV W181 DUDIT A599 LBN W159 BHY W70 NYB G221 WL |
| Aircraft | A359/H-SDE2E3GHIJ3J4J5LM1ORWXY/LB1D1 |
Departure
| Time | N/A |
|---|---|
| Airport | Chongqing Jiangbei International Airport (ZUCK) |
Arrival
| Time | 2026-04-30 13:39 |
|---|---|
| Airport | Sanya Phoenix International Airport (ZJSY) |
| Time | Latitude | Longitude | Altitude | Speed | Heading |
|---|---|---|---|---|---|
| 2026-04-30 12:07 | 29.00121 | 106.95551 | 24738 ft | 449 kts | 185° |
| 2026-04-30 12:07 | 28.96967 | 106.95507 | 25002 ft | 456 kts | 185° |
| 2026-04-30 12:08 | 28.90959 | 106.95433 | 25815 ft | 460 kts | 185° |
| 2026-04-30 12:08 | 28.84515 | 106.95353 | 26695 ft | 466 kts | 185° |
| 2026-04-30 12:08 | 28.77974 | 106.95276 | 27549 ft | 473 kts | 185° |
| 2026-04-30 12:08 | 28.71355 | 106.95197 | 28340 ft | 481 kts | 185° |
| 2026-04-30 12:09 | 28.64611 | 106.95122 | 29181 ft | 487 kts | 185° |
| 2026-04-30 12:09 | 28.57797 | 106.95046 | 30002 ft | 493 kts | 185° |
| 2026-04-30 12:09 | 28.50881 | 106.94957 | 30670 ft | 498 kts | 185° |
| 2026-04-30 12:09 | 28.43950 | 106.94871 | 31275 ft | 503 kts | 185° |
| 2026-04-30 12:10 | 28.36893 | 106.94786 | 31856 ft | 507 kts | 185° |
| 2026-04-30 12:10 | 28.29800 | 106.94703 | 32399 ft | 512 kts | 185° |
| 2026-04-30 12:10 | 28.22893 | 106.94624 | 33053 ft | 512 kts | 185° |
| 2026-04-30 12:10 | 28.19373 | 106.94709 | 33460 ft | 512 kts | 182° |
| 2026-04-30 12:11 | 28.15808 | 106.94916 | 33824 ft | 512 kts | 181° |
| 2026-04-30 12:11 | 28.12254 | 106.95166 | 34142 ft | 513 kts | 181° |
| 2026-04-30 12:11 | 28.08692 | 106.95420 | 34434 ft | 512 kts | 181° |
| 2026-04-30 12:11 | 28.05142 | 106.95663 | 34688 ft | 512 kts | 181° |
| 2026-04-30 12:12 | 28.01584 | 106.95882 | 34919 ft | 512 kts | 182° |
| 2026-04-30 12:12 | 27.98024 | 106.96080 | 35179 ft | 512 kts | 182° |
| 2026-04-30 12:12 | 27.94465 | 106.96267 | 35456 ft | 512 kts | 182° |
| 2026-04-30 12:12 | 27.90988 | 106.96446 | 35710 ft | 511 kts | 182° |
| 2026-04-30 12:13 | 27.87429 | 106.96630 | 35963 ft | 511 kts | 182° |
| 2026-04-30 12:13 | 27.83878 | 106.96815 | 36210 ft | 511 kts | 182° |
| 2026-04-30 12:13 | 27.80316 | 106.96999 | 36464 ft | 511 kts | 182° |
| 2026-04-30 12:13 | 27.76759 | 106.97185 | 36723 ft | 512 kts | 182° |
| 2026-04-30 12:14 | 27.73200 | 106.97372 | 36977 ft | 512 kts | 182° |
| 2026-04-30 12:14 | 27.69647 | 106.97559 | 37204 ft | 512 kts | 182° |
| 2026-04-30 12:14 | 27.66083 | 106.97746 | 37447 ft | 512 kts | 182° |
| 2026-04-30 12:14 | 27.62530 | 106.97933 | 37686 ft | 512 kts | 182° |
| 2026-04-30 12:15 | 27.58970 | 106.98121 | 37914 ft | 512 kts | 182° |
| 2026-04-30 12:15 | 27.55417 | 106.98308 | 38171 ft | 511 kts | 182° |
| 2026-04-30 12:15 | 27.51860 | 106.98495 | 38393 ft | 511 kts | 182° |
| 2026-04-30 12:15 | 27.48308 | 106.98681 | 38607 ft | 512 kts | 182° |
| 2026-04-30 12:16 | 27.44795 | 106.98870 | 38817 ft | 512 kts | 182° |
| 2026-04-30 12:16 | 27.41194 | 106.99065 | 39007 ft | 511 kts | 182° |
| 2026-04-30 12:16 | 27.37691 | 106.99255 | 39220 ft | 510 kts | 182° |
| 2026-04-30 12:16 | 27.34149 | 106.99446 | 39455 ft | 508 kts | 182° |
| 2026-04-30 12:17 | 27.27100 | 106.99827 | 39828 ft | 507 kts | 183° |
| 2026-04-30 12:17 | 27.23579 | 107.00017 | 40003 ft | 506 kts | 183° |
| 2026-04-30 12:17 | 27.20056 | 107.00206 | 40176 ft | 505 kts | 183° |
| 2026-04-30 12:18 | 27.16549 | 107.00394 | 40333 ft | 505 kts | 183° |
| 2026-04-30 12:18 | 27.13040 | 107.00583 | 40494 ft | 504 kts | 183° |
| 2026-04-30 12:18 | 27.09540 | 107.00770 | 40644 ft | 504 kts | 183° |
| 2026-04-30 12:18 | 27.06038 | 107.00959 | 40792 ft | 503 kts | 183° |
| 2026-04-30 12:19 | 27.02542 | 107.01146 | 40924 ft | 502 kts | 183° |
| 2026-04-30 12:19 | 26.99055 | 107.01333 | 41112 ft | 501 kts | 183° |
| 2026-04-30 12:19 | 26.92077 | 107.01707 | 41162 ft | 504 kts | 183° |
| 2026-04-30 12:20 | 26.85037 | 107.02056 | 41169 ft | 507 kts | 183° |
| 2026-04-30 12:20 | 26.78014 | 107.02391 | 41171 ft | 510 kts | 183° |
| 2026-04-30 12:21 | 26.70910 | 107.02755 | 41172 ft | 511 kts | 183° |
| 2026-04-30 12:21 | 26.63801 | 107.03126 | 41179 ft | 512 kts | 183° |
| 2026-04-30 12:22 | 26.56675 | 107.03497 | 41180 ft | 512 kts | 183° |
| 2026-04-30 12:22 | 26.49557 | 107.03814 | 41183 ft | 512 kts | 183° |
| 2026-04-30 12:23 | 26.42418 | 107.04120 | 41169 ft | 512 kts | 183° |
| 2026-04-30 12:23 | 26.35315 | 107.04650 | 41181 ft | 515 kts | 176° |
| 2026-04-30 12:24 | 26.28434 | 107.07145 | 41189 ft | 529 kts | 156° |
| 2026-04-30 12:24 | 26.25324 | 107.09357 | 41188 ft | 535 kts | 145° |
| 2026-04-30 12:24 | 26.22506 | 107.12100 | 41188 ft | 539 kts | 140° |
| 2026-04-30 12:25 | 26.17142 | 107.17942 | 41186 ft | 540 kts | 138° |
| 2026-04-30 12:25 | 26.11836 | 107.23884 | 41185 ft | 540 kts | 138° |
| 2026-04-30 12:26 | 26.06550 | 107.29737 | 41185 ft | 539 kts | 138° |
| 2026-04-30 12:26 | 26.01212 | 107.35585 | 41170 ft | 538 kts | 139° |
| 2026-04-30 12:27 | 25.95867 | 107.41416 | 41185 ft | 538 kts | 139° |
| 2026-04-30 12:27 | 25.90527 | 107.47234 | 41181 ft | 537 kts | 139° |
| 2026-04-30 12:28 | 25.86092 | 107.52062 | 41176 ft | 537 kts | 139° |
| 2026-04-30 12:28 | 25.80756 | 107.57864 | 41176 ft | 537 kts | 139° |
| 2026-04-30 12:29 | 25.74527 | 107.64627 | 41168 ft | 536 kts | 139° |
| 2026-04-30 12:29 | 25.70101 | 107.69431 | 41169 ft | 535 kts | 139° |
| 2026-04-30 12:30 | 25.64800 | 107.75230 | 41166 ft | 535 kts | 139° |
| 2026-04-30 12:30 | 25.59505 | 107.81035 | 41153 ft | 536 kts | 139° |
| 2026-04-30 12:31 | 25.54200 | 107.86838 | 41159 ft | 536 kts | 139° |
| 2026-04-30 12:31 | 25.47775 | 107.93191 | 41153 ft | 529 kts | 150° |
| 2026-04-30 12:32 | 25.42333 | 107.96192 | 41146 ft | 516 kts | 167° |
| 2026-04-30 12:32 | 25.35369 | 107.97684 | 41152 ft | 508 kts | 178° |
| 2026-04-30 12:33 | 25.28394 | 107.98529 | 41152 ft | 507 kts | 179° |
| 2026-04-30 12:33 | 25.21370 | 107.99312 | 41143 ft | 508 kts | 179° |
| 2026-04-30 12:34 | 25.14330 | 108.00137 | 41143 ft | 508 kts | 179° |
| 2026-04-30 12:34 | 25.07299 | 108.00992 | 41140 ft | 508 kts | 179° |
| 2026-04-30 12:35 | 25.00261 | 108.01850 | 41137 ft | 509 kts | 179° |
| 2026-04-30 12:35 | 24.93219 | 108.02707 | 41134 ft | 509 kts | 179° |
| 2026-04-30 12:36 | 24.86158 | 108.03564 | 41132 ft | 510 kts | 179° |
| 2026-04-30 12:36 | 24.79114 | 108.04418 | 41129 ft | 509 kts | 179° |
| 2026-04-30 12:37 | 24.72065 | 108.05271 | 41127 ft | 509 kts | 179° |
| 2026-04-30 12:37 | 24.65025 | 108.06122 | 41132 ft | 509 kts | 179° |
| 2026-04-30 12:38 | 24.57981 | 108.06973 | 41129 ft | 509 kts | 179° |
| 2026-04-30 12:38 | 24.50943 | 108.07829 | 41115 ft | 508 kts | 178° |
| 2026-04-30 12:39 | 24.43961 | 108.08681 | 41123 ft | 507 kts | 179° |
| 2026-04-30 12:39 | 24.36952 | 108.09522 | 41123 ft | 507 kts | 179° |
| 2026-04-30 12:40 | 24.29939 | 108.10374 | 41124 ft | 507 kts | 178° |
| 2026-04-30 12:40 | 24.22932 | 108.11228 | 41136 ft | 507 kts | 178° |
| 2026-04-30 12:41 | 24.15924 | 108.12081 | 41134 ft | 507 kts | 179° |
| 2026-04-30 12:41 | 24.08906 | 108.12930 | 41119 ft | 507 kts | 179° |
| 2026-04-30 12:42 | 24.01897 | 108.13776 | 41131 ft | 507 kts | 178° |
| 2026-04-30 12:42 | 23.94922 | 108.14637 | 41117 ft | 508 kts | 178° |
| 2026-04-30 12:43 | 23.88051 | 108.16639 | 41121 ft | 518 kts | 160° |
| 2026-04-30 12:43 | 23.81998 | 108.20992 | 41119 ft | 528 kts | 139° |
| 2026-04-30 12:44 | 23.79553 | 108.24003 | 41121 ft | 532 kts | 128° |
| 2026-04-30 12:44 | 23.77623 | 108.27459 | 41123 ft | 535 kts | 117° |
| 2026-04-30 12:44 | 23.76279 | 108.31247 | 41121 ft | 537 kts | 106° |
| 2026-04-30 12:44 | 23.75564 | 108.35246 | 41121 ft | 538 kts | 95° |
| 2026-04-30 12:45 | 23.75503 | 108.39328 | 41120 ft | 537 kts | 84° |
| 2026-04-30 12:45 | 23.76096 | 108.43339 | 41127 ft | 535 kts | 73° |
| 2026-04-30 12:45 | 23.78555 | 108.50988 | 41127 ft | 536 kts | 73° |
| 2026-04-30 12:46 | 23.79543 | 108.59053 | 41126 ft | 539 kts | 90° |
| 2026-04-30 12:46 | 23.79109 | 108.70052 | 41117 ft | 541 kts | 94° |
| 2026-04-30 12:47 | 23.78055 | 108.86446 | 41115 ft | 541 kts | 94° |
| 2026-04-30 12:47 | 23.77518 | 108.95204 | 41116 ft | 541 kts | 94° |
| 2026-04-30 12:48 | 23.76856 | 109.03336 | 41110 ft | 540 kts | 101° |
| 2026-04-30 12:48 | 23.74406 | 109.11018 | 41110 ft | 535 kts | 122° |
| 2026-04-30 12:49 | 23.72343 | 109.14368 | 41109 ft | 530 kts | 133° |
| 2026-04-30 12:49 | 23.69762 | 109.17275 | 41110 ft | 524 kts | 143° |
| 2026-04-30 12:49 | 23.66867 | 109.19557 | 41108 ft | 518 kts | 154° |
| 2026-04-30 12:49 | 23.63655 | 109.21267 | 41108 ft | 511 kts | 164° |
| 2026-04-30 12:50 | 23.56819 | 109.22796 | 41109 ft | 497 kts | 184° |
| 2026-04-30 12:50 | 23.50078 | 109.21874 | 41108 ft | 483 kts | 201° |
| 2026-04-30 12:51 | 23.43564 | 109.20023 | 41109 ft | 488 kts | 193° |
| 2026-04-30 12:51 | 23.36708 | 109.19913 | 41114 ft | 498 kts | 180° |
| 2026-04-30 12:52 | 23.29797 | 109.20710 | 41116 ft | 500 kts | 178° |
| 2026-04-30 12:52 | 23.22896 | 109.21669 | 41115 ft | 501 kts | 177° |
| 2026-04-30 12:53 | 23.15973 | 109.22620 | 41104 ft | 500 kts | 178° |
| 2026-04-30 12:53 | 23.09126 | 109.23528 | 41119 ft | 501 kts | 178° |
| 2026-04-30 12:54 | 23.02215 | 109.24434 | 41120 ft | 501 kts | 178° |
| 2026-04-30 12:54 | 22.95289 | 109.25340 | 41119 ft | 501 kts | 178° |
| 2026-04-30 12:55 | 22.88359 | 109.26247 | 41120 ft | 501 kts | 178° |
| 2026-04-30 12:55 | 22.81433 | 109.27151 | 41118 ft | 501 kts | 177° |
| 2026-04-30 12:56 | 22.74557 | 109.28050 | 41117 ft | 501 kts | 177° |
| 2026-04-30 12:56 | 22.67640 | 109.28960 | 41119 ft | 501 kts | 177° |
| 2026-04-30 12:57 | 22.60766 | 109.29867 | 41117 ft | 501 kts | 177° |
| 2026-04-30 12:57 | 22.53846 | 109.30777 | 41112 ft | 501 kts | 177° |
| 2026-04-30 12:58 | 22.46932 | 109.31687 | 41117 ft | 501 kts | 177° |
| 2026-04-30 12:58 | 22.35427 | 109.33200 | 41117 ft | 501 kts | 177° |
| 2026-04-30 12:59 | 22.21579 | 109.35022 | 41114 ft | 501 kts | 176° |
| 2026-04-30 12:59 | 22.07726 | 109.36814 | 41117 ft | 501 kts | 176° |
| 2026-04-30 13:00 | 21.95387 | 109.38413 | 41119 ft | 501 kts | 176° |
| 2026-04-30 13:00 | 21.88456 | 109.39312 | 41117 ft | 501 kts | 176° |
| 2026-04-30 13:01 | 21.81535 | 109.40209 | 41118 ft | 501 kts | 176° |
| 2026-04-30 13:01 | 21.74654 | 109.41099 | 41117 ft | 501 kts | 176° |
| 2026-04-30 13:02 | 21.67732 | 109.41994 | 41117 ft | 501 kts | 176° |
| 2026-04-30 13:02 | 21.60814 | 109.42871 | 41115 ft | 500 kts | 178° |
| 2026-04-30 13:03 | 21.53919 | 109.42847 | 41120 ft | 494 kts | 187° |
| 2026-04-30 13:03 | 21.47068 | 109.42414 | 41120 ft | 493 kts | 188° |
| 2026-04-30 13:04 | 21.40223 | 109.41916 | 41121 ft | 493 kts | 188° |
| 2026-04-30 13:04 | 21.33382 | 109.41427 | 41121 ft | 493 kts | 188° |
| 2026-04-30 13:05 | 21.26548 | 109.40953 | 41120 ft | 492 kts | 188° |
| 2026-04-30 13:06 | 21.16302 | 109.40251 | 41119 ft | 491 kts | 188° |
| 2026-04-30 13:06 | 21.09534 | 109.39786 | 41121 ft | 491 kts | 188° |
| 2026-04-30 13:07 | 21.02711 | 109.39319 | 41120 ft | 491 kts | 188° |
| 2026-04-30 13:07 | 20.95896 | 109.38911 | 41119 ft | 493 kts | 184° |
| 2026-04-30 13:08 | 20.89050 | 109.39915 | 41120 ft | 504 kts | 167° |
| 2026-04-30 13:08 | 20.82708 | 109.43246 | 41122 ft | 516 kts | 147° |
| 2026-04-30 13:09 | 20.77030 | 109.47991 | 41118 ft | 519 kts | 144° |
| 2026-04-30 13:09 | 20.71457 | 109.52938 | 41124 ft | 520 kts | 144° |
| 2026-04-30 13:10 | 20.65884 | 109.57859 | 41125 ft | 520 kts | 144° |
| 2026-04-30 13:10 | 20.60305 | 109.62727 | 41123 ft | 521 kts | 145° |
| 2026-04-30 13:11 | 20.54647 | 109.67636 | 41125 ft | 521 kts | 145° |
| 2026-04-30 13:11 | 20.49057 | 109.72481 | 41123 ft | 521 kts | 144° |
| 2026-04-30 13:12 | 20.43410 | 109.77337 | 41119 ft | 519 kts | 148° |
| 2026-04-30 13:12 | 20.37167 | 109.80983 | 41112 ft | 508 kts | 165° |
| 2026-04-30 13:13 | 20.30351 | 109.82349 | 41099 ft | 494 kts | 184° |
| 2026-04-30 13:13 | 20.26945 | 109.82106 | 41075 ft | 488 kts | 194° |
| 2026-04-30 13:14 | 20.17018 | 109.79799 | 41071 ft | 487 kts | 197° |
| 2026-04-30 13:14 | 20.07111 | 109.77397 | 40245 ft | 499 kts | 197° |
| 2026-04-30 13:15 | 20.04846 | 109.76861 | 39676 ft | 501 kts | 196° |
| 2026-04-30 13:15 | 19.96985 | 109.75025 | 39391 ft | 496 kts | 197° |
| 2026-04-30 13:15 | 19.93603 | 109.74229 | 39122 ft | 499 kts | 197° |
| 2026-04-30 13:16 | 19.90203 | 109.73424 | 38651 ft | 493 kts | 196° |
| 2026-04-30 13:16 | 19.86847 | 109.72634 | 36806 ft | 505 kts | 196° |
| 2026-04-30 13:17 | 19.79128 | 109.70998 | 36438 ft | 336 kts | 196° |
| 2026-04-30 13:17 | 19.77521 | 109.70665 | 35362 ft | 360 kts | 197° |
| 2026-04-30 13:17 | 19.72280 | 109.69321 | 32639 ft | 409 kts | 198° |
| 2026-04-30 13:18 | 19.68552 | 109.68388 | 31422 ft | 421 kts | 197° |
| 2026-04-30 13:18 | 19.63727 | 109.67221 | 29988 ft | 433 kts | 197° |
| 2026-04-30 13:18 | 19.60760 | 109.66514 | 28939 ft | 441 kts | 196° |
| 2026-04-30 13:19 | 19.57736 | 109.65798 | 27847 ft | 450 kts | 196° |
| 2026-04-30 13:19 | 19.54653 | 109.65069 | 26746 ft | 458 kts | 196° |
| 2026-04-30 13:19 | 19.51510 | 109.64328 | 25734 ft | 465 kts | 196° |
| 2026-04-30 13:19 | 19.48349 | 109.63585 | 25106 ft | 462 kts | 196° |
| 2026-04-30 13:20 | 19.45238 | 109.62857 | 24870 ft | 462 kts | 196° |
| 2026-04-30 13:20 | 19.42050 | 109.62106 | 24806 ft | 476 kts | 196° |
| 2026-04-30 13:20 | 19.38781 | 109.61336 | 24902 ft | 486 kts | 195° |
| 2026-04-30 13:20 | 19.35453 | 109.60552 | 24905 ft | 493 kts | 195° |
| 2026-04-30 13:21 | 19.32151 | 109.59780 | 24574 ft | 479 kts | 195° |
| 2026-04-30 13:21 | 19.28910 | 109.59023 | 23879 ft | 476 kts | 195° |
| 2026-04-30 13:21 | 19.25678 | 109.58267 | 23206 ft | 474 kts | 195° |
| 2026-04-30 13:22 | 19.19375 | 109.56795 | 22146 ft | 456 kts | 195° |
| 2026-04-30 13:22 | 19.16297 | 109.56076 | 21475 ft | 450 kts | 195° |
| 2026-04-30 13:22 | 19.10250 | 109.54665 | 20197 ft | 441 kts | 195° |
| 2026-04-30 13:23 | 19.07265 | 109.53968 | 19541 ft | 437 kts | 195° |
| 2026-04-30 13:23 | 19.01427 | 109.52607 | 18321 ft | 428 kts | 194° |
| 2026-04-30 13:24 | 18.95651 | 109.51258 | 16890 ft | 421 kts | 194° |
| 2026-04-30 13:24 | 18.89978 | 109.49935 | 15531 ft | 413 kts | 194° |
| 2026-04-30 13:25 | 18.84409 | 109.48636 | 14196 ft | 406 kts | 194° |
| 2026-04-30 13:25 | 18.78932 | 109.47360 | 12821 ft | 399 kts | 194° |
| 2026-04-30 13:26 | 18.70984 | 109.45512 | 11259 ft | 374 kts | 193° |
| 2026-04-30 13:26 | 18.66112 | 109.44381 | 10660 ft | 337 kts | 193° |
| 2026-04-30 13:27 | 18.61815 | 109.43382 | 9918 ft | 297 kts | 193° |
| 2026-04-30 13:28 | 18.56041 | 109.42035 | 8141 ft | 275 kts | 193° |
| 2026-04-30 13:28 | 18.52353 | 109.41131 | 6878 ft | 269 kts | 197° |
| 2026-04-30 13:28 | 18.50592 | 109.40465 | 6090 ft | 271 kts | 204° |
| 2026-04-30 13:29 | 18.47352 | 109.38289 | 4245 ft | 282 kts | 221° |
| 2026-04-30 13:29 | 18.44907 | 109.35437 | 3857 ft | 235 kts | 231° |
| 2026-04-30 13:30 | 18.42044 | 109.31671 | 3949 ft | 216 kts | 231° |
| 2026-04-30 13:31 | 18.40219 | 109.29199 | 3929 ft | 216 kts | 235° |
| 2026-04-30 13:31 | 18.38326 | 109.24908 | 3885 ft | 214 kts | 255° |
| 2026-04-30 13:32 | 18.37805 | 109.21854 | 3217 ft | 214 kts | 261° |
| 2026-04-30 13:32 | 18.36937 | 109.18954 | 2774 ft | 200 kts | 239° |
| 2026-04-30 13:33 | 18.35134 | 109.16880 | 2335 ft | 189 kts | 213° |
| 2026-04-30 13:33 | 18.32728 | 109.15842 | 2285 ft | 188 kts | 189° |
| 2026-04-30 13:34 | 18.31434 | 109.15729 | 2285 ft | 187 kts | 178° |
| 2026-04-30 13:34 | 18.27870 | 109.17102 | 2293 ft | 186 kts | 130° |
| 2026-04-30 13:35 | 18.27404 | 109.18365 | 2287 ft | 188 kts | 97° |
| 2026-04-30 13:35 | 18.27669 | 109.21091 | 2285 ft | 188 kts | 83° |
| 2026-04-30 13:36 | 18.28015 | 109.23815 | 2285 ft | 188 kts | 83° |
| 2026-04-30 13:36 | 18.28184 | 109.25157 | 2287 ft | 188 kts | 83° |
| 2026-04-30 13:36 | 18.28540 | 109.27882 | 2225 ft | 187 kts | 83° |
| 2026-04-30 13:37 | 18.28725 | 109.29234 | 1992 ft | 186 kts | 82° |
| 2026-04-30 13:37 | 18.29072 | 109.31904 | 1508 ft | 185 kts | 83° |
| 2026-04-30 13:38 | 18.29420 | 109.34565 | 1029 ft | 182 kts | 83° |
| 2026-04-30 13:38 | 18.29592 | 109.35880 | 810 ft | 182 kts | 82° |
| 2026-04-30 13:38 | 18.29909 | 109.38509 | 423 ft | 179 kts | 85° |
| 2026-04-30 13:39 | 18.30255 | 109.40920 | 88 ft | 146 kts | 84° |
| 2026-04-30 13:39 | 18.30457 | 109.42130 | 101 ft | 32 kts | 61° |
| 2026-04-30 13:40 | 18.30566 | 109.42243 | 101 ft | 14 kts | 3° |
| 2026-04-30 13:40 | 18.30588 | 109.42226 | 100 ft | 2 kts | 291° |
| 2026-04-30 13:40 | 18.30589 | 109.42203 | 100 ft | 4 kts | 262° |
| 2026-04-30 13:40 | 18.30584 | 109.42160 | 100 ft | 8 kts | 262° |
| 2026-04-30 13:41 | 18.30575 | 109.42088 | 101 ft | 12 kts | 262° |
| 2026-04-30 13:41 | 18.30562 | 109.41989 | 97 ft | 15 kts | 262° |
| 2026-04-30 13:41 | 18.30550 | 109.41895 | 99 ft | 12 kts | 263° |
| 2026-04-30 13:41 | 18.30538 | 109.41795 | 97 ft | 16 kts | 263° |
| 2026-04-30 13:42 | 18.30522 | 109.41670 | 95 ft | 18 kts | 262° |
| 2026-04-30 13:42 | 18.30505 | 109.41537 | 97 ft | 17 kts | 262° |
| 2026-04-30 13:42 | 18.30481 | 109.41317 | 95 ft | 7 kts | 290° |
| 2026-04-30 13:43 | 18.30530 | 109.41292 | 95 ft | 9 kts | 352° |
| 2026-04-30 13:43 | 18.30601 | 109.41282 | 96 ft | 10 kts | 351° |
| 2026-04-30 13:43 | 18.30682 | 109.41269 | 94 ft | 13 kts | 352° |
| 2026-04-30 13:43 | 18.30768 | 109.41239 | 95 ft | 8 kts | 306° |
| 2026-04-30 13:44 | 18.30778 | 109.41176 | 92 ft | 10 kts | 262° |
| 2026-04-30 13:44 | 18.30758 | 109.41112 | 95 ft | 5 kts | 212° |
| 2026-04-30 13:44 | 18.30715 | 109.41113 | 94 ft | 8 kts | 174° |
| 2026-04-30 13:44 | 18.30655 | 109.41109 | 94 ft | 10 kts | 205° |
| 2026-04-30 13:45 | 18.30602 | 109.40957 | 93 ft | 14 kts | 260° |
| 2026-04-30 13:45 | 18.30594 | 109.40891 | 90 ft | 0 kts | 262° |